Time;durP1;ratioP1;P1;durP2;ratioP2;P2;SDS_P1;SDS_P2;PMS_P1;PMS_P2;Temp;Humidity;BMP_temperature;BMP_pressure;BME280_temperature;BME280_humidity;BME280_pressure;Samples;Min_cycle;Max_cycle;Signal;HPM_P1;HPM_P2
2022/01/15 00:01:59;;;;;;;10.70;6.07;;;4.60;99.90;;;;;;5051264;28;20386;-79
2022/01/15 00:04:24;;;;;;;11.48;6.22;;;4.60;99.90;;;;;;5033442;28;20025;-79
2022/01/15 00:06:50;;;;;;;8.77;6.05;;;4.70;99.90;;;;;;5033536;28;20035;-79
2022/01/15 00:09:16;;;;;;;10.05;6.85;;;4.70;99.90;;;;;;5051020;28;20284;-79
2022/01/15 00:11:44;;;;;;;9.88;6.80;;;4.70;99.90;;;;;;5033290;28;20071;-79
2022/01/15 00:14:21;;;;;;;10.20;6.32;;;4.70;99.90;;;;;;5052198;28;20105;-79
2022/01/15 00:16:50;;;;;;;13.32;5.68;;;4.70;99.90;;;;;;5036955;28;20482;-79
2022/01/15 00:19:18;;;;;;;11.15;5.55;;;4.70;99.90;;;;;;5054917;28;20032;-79
2022/01/15 00:21:44;;;;;;;9.55;5.70;;;4.70;99.90;;;;;;5054922;28;20028;-79
2022/01/15 00:24:10;;;;;;;8.27;6.22;;;4.70;99.90;;;;;;5036856;28;20368;-79
2022/01/15 00:26:36;;;;;;;10.20;7.20;;;4.60;99.90;;;;;;5054736;28;20036;-79
2022/01/15 00:29:02;;;;;;;15.75;7.47;;;4.60;99.90;;;;;;5054823;28;20028;-79
2022/01/15 00:31:28;;;;;;;9.38;6.75;;;4.60;99.90;;;;;;5054706;28;20029;-78
2022/01/15 00:33:53;;;;;;;10.18;6.65;;;4.60;99.90;;;;;;5054710;28;20135;-78
2022/01/15 00:36:20;;;;;;;9.90;6.47;;;4.50;99.90;;;;;;5054671;28;20052;-79
2022/01/15 00:38:46;;;;;;;8.88;6.80;;;4.50;99.90;;;;;;5036644;28;20437;-79
2022/01/15 00:41:12;;;;;;;9.70;6.40;;;4.50;99.90;;;;;;5054619;28;20512;-79
2022/01/15 00:43:38;;;;;;;7.20;5.90;;;4.40;99.90;;;;;;5054585;28;20044;-79
2022/01/15 00:46:04;;;;;;;8.07;6.65;;;4.40;99.90;;;;;;5054296;28;20057;-79
2022/01/15 00:48:30;;;;;;;9.77;6.30;;;4.40;99.90;;;;;;5054355;28;20445;-79
2022/01/15 00:50:56;;;;;;;7.70;5.40;;;4.50;99.90;;;;;;5054465;28;20136;-79
2022/01/15 00:53:21;;;;;;;14.07;5.90;;;4.50;99.90;;;;;;5036323;28;20402;-79
2022/01/15 00:55:47;;;;;;;6.22;5.57;;;4.50;99.90;;;;;;5036271;28;20025;-78
2022/01/15 00:58:13;;;;;;;9.10;6.32;;;4.50;99.90;;;;;;5054408;28;20033;-79
2022/01/15 01:00:39;;;;;;;7.90;5.05;;;4.60;99.90;;;;;;5053919;28;20091;-79
2022/01/15 01:03:05;;;;;;;8.57;5.57;;;4.60;99.90;;;;;;5054157;28;20041;-79
2022/01/15 01:05:31;;;;;;;6.65;5.35;;;4.60;99.90;;;;;;5054042;28;20080;-79
2022/01/15 01:07:57;;;;;;;6.20;5.35;;;4.60;99.90;;;;;;5053720;28;20060;-79
2022/01/15 01:21:12;;;;;;;7.53;5.65;;;4.60;99.90;;;;;;5053901;28;20106;-79
2022/01/15 01:23:37;;;;;;;8.35;6.18;;;4.60;99.90;;;;;;5053347;28;20029;-78
2022/01/15 01:26:11;;;;;;;7.10;5.13;;;4.60;99.90;;;;;;5052471;28;20029;-79
2022/01/15 01:28:44;;;;;;;7.28;5.05;;;4.60;99.90;;;;;;5035560;28;20108;-78
2022/01/15 01:31:20;;;;;;;6.30;5.18;;;4.60;99.90;;;;;;5053724;28;20112;-78
2022/01/15 01:33:50;;;;;;;6.38;4.70;;;4.60;99.90;;;;;;5053816;28;20017;-78
2022/01/15 01:36:23;;;;;;;9.40;5.18;;;4.60;99.90;;;;;;5053584;28;20467;-79
2022/01/15 01:41:19;;;;;;;9.02;5.90;;;4.60;99.90;;;;;;5053418;28;20029;-79
2022/01/15 01:44:03;;;;;;;7.55;5.50;;;4.60;99.90;;;;;;5053171;28;20052;-79
2022/01/15 01:46:46;;;;;;;8.68;5.38;;;4.50;99.90;;;;;;5052579;28;20490;-78
2022/01/15 01:49:14;;;;;;;5.55;5.03;;;4.40;99.90;;;;;;5035245;28;20037;-79
2022/01/15 01:51:40;;;;;;;10.45;5.57;;;4.50;99.90;;;;;;5035318;28;20502;-79
2022/01/15 01:54:09;;;;;;;7.88;5.43;;;4.40;99.90;;;;;;5053356;28;20494;-79
2022/01/15 01:56:36;;;;;;;7.22;5.00;;;4.40;99.90;;;;;;5052833;28;20032;-79
2022/01/15 01:59:04;;;;;;;7.07;4.35;;;4.40;99.90;;;;;;5052873;28;20100;-79
2022/01/15 02:01:30;;;;;;;6.80;5.00;;;4.40;99.90;;;;;;5053020;28;20021;-79
2022/01/15 02:03:56;;;;;;;7.53;5.20;;;4.40;99.90;;;;;;5035175;28;20094;-79
2022/01/15 02:06:21;;;;;;;4.72;4.25;;;4.40;99.90;;;;;;5052733;28;20482;-79
2022/01/15 02:08:50;;;;;;;6.75;4.88;;;4.50;99.90;;;;;;5052815;28;20419;-79
2022/01/15 02:11:16;;;;;;;5.78;4.53;;;4.40;99.90;;;;;;5052915;28;20017;-78
2022/01/15 02:13:44;;;;;;;8.57;4.85;;;4.40;99.90;;;;;;5034843;28;20613;-79
2022/01/15 02:16:11;;;;;;;5.72;4.63;;;4.40;99.90;;;;;;5052447;28;20036;-79
2022/01/15 02:18:37;;;;;;;7.10;4.78;;;4.40;99.90;;;;;;5052582;28;20029;-78
2022/01/15 02:23:36;;;;;;;6.40;3.95;;;4.40;99.90;;;;;;5052665;28;20063;-78
2022/01/15 02:26:07;;;;;;;5.07;4.25;;;4.50;99.90;;;;;;5052380;28;20483;-79
2022/01/15 02:28:38;;;;;;;5.45;4.45;;;4.50;99.90;;;;;;5052281;28;20601;-79
2022/01/15 02:31:06;;;;;;;7.65;5.10;;;4.50;99.90;;;;;;5052204;28;20104;-78
2022/01/15 02:33:33;;;;;;;4.65;4.18;;;4.50;99.90;;;;;;5052341;28;20237;-79
2022/01/15 02:35:59;;;;;;;5.55;4.18;;;4.50;99.90;;;;;;5052309;28;20570;-79
2022/01/15 02:38:25;;;;;;;6.60;4.40;;;4.40;99.90;;;;;;5052136;28;20036;-79
2022/01/15 02:40:51;;;;;;;9.43;4.88;;;4.40;99.90;;;;;;5034190;28;20025;-79
2022/01/15 02:43:21;;;;;;;7.60;4.70;;;4.40;99.90;;;;;;5034336;28;20124;-78
2022/01/15 02:45:55;;;;;;;6.32;5.13;;;4.40;99.90;;;;;;5051990;28;20106;-79
2022/01/15 02:48:23;;;;;;;6.78;4.88;;;4.30;99.90;;;;;;5034268;28;20524;-79
2022/01/15 02:50:49;;;;;;;5.78;4.40;;;4.30;99.90;;;;;;5052094;28;20391;-79
2022/01/15 02:53:16;;;;;;;4.55;4.13;;;4.30;99.90;;;;;;5051985;28;20021;-79
2022/01/15 02:55:47;;;;;;;7.70;4.25;;;4.30;99.90;;;;;;5051879;28;20426;-79
2022/01/15 02:58:13;;;;;;;5.75;4.95;;;4.30;99.90;;;;;;5033800;28;20028;-78
2022/01/15 03:00:39;;;;;;;5.35;4.22;;;4.30;99.90;;;;;;5052136;28;20028;-79
2022/01/15 03:03:05;;;;;;;4.97;4.47;;;4.30;99.90;;;;;;5051602;28;20449;-78
2022/01/15 03:05:31;;;;;;;4.38;3.95;;;4.30;99.90;;;;;;5051781;28;20028;-79
2022/01/15 03:07:57;;;;;;;4.53;4.10;;;4.40;99.90;;;;;;5052433;28;20029;-78
2022/01/15 03:10:23;;;;;;;5.53;4.30;;;4.40;99.90;;;;;;5034327;28;20025;-79
2022/01/15 03:12:49;;;;;;;5.13;4.50;;;4.40;99.90;;;;;;5034065;28;20025;-78
2022/01/15 03:15:19;;;;;;;5.20;4.60;;;4.40;99.90;;;;;;5034294;28;20021;-79
2022/01/15 03:17:46;;;;;;;5.22;3.85;;;4.40;99.90;;;;;;5033844;28;20024;-79
2022/01/15 03:20:13;;;;;;;5.95;4.38;;;4.40;99.90;;;;;;5051888;28;20483;-78
2022/01/15 03:22:39;;;;;;;4.72;3.85;;;4.40;99.90;;;;;;5051318;28;20037;-78
2022/01/15 03:25:06;;;;;;;5.20;3.97;;;4.40;99.90;;;;;;5051453;28;20040;-79
2022/01/15 03:27:32;;;;;;;5.20;4.22;;;4.40;99.90;;;;;;5033696;28;20158;-79
2022/01/15 03:29:58;;;;;;;5.75;4.63;;;4.30;99.90;;;;;;5033380;28;20116;-78
2022/01/15 03:32:23;;;;;;;4.03;3.72;;;4.30;99.90;;;;;;5033641;28;20022;-78
2022/01/15 03:34:50;;;;;;;6.18;4.65;;;4.30;99.90;;;;;;5051395;28;20044;-78
2022/01/15 03:37:16;;;;;;;5.05;4.00;;;4.30;99.90;;;;;;5051288;28;20023;-78
2022/01/15 03:39:42;;;;;;;4.95;4.15;;;4.30;99.90;;;;;;5051327;28;20028;-79
2022/01/15 03:42:12;;;;;;;4.03;3.55;;;4.30;99.90;;;;;;5051397;28;20036;-78
2022/01/15 03:44:48;;;;;;;5.18;4.35;;;4.30;99.90;;;;;;5051079;28;20052;-79
2022/01/15 03:47:15;;;;;;;4.32;3.70;;;4.20;99.90;;;;;;5033106;28;20388;-79
2022/01/15 03:49:42;;;;;;;4.75;4.10;;;4.20;99.90;;;;;;5052900;28;20021;-79
2022/01/15 03:52:09;;;;;;;6.07;4.10;;;4.20;99.90;;;;;;5037442;28;20025;-79
2022/01/15 03:54:35;;;;;;;5.30;4.20;;;4.20;99.90;;;;;;5055109;28;20060;-79
2022/01/15 03:57:02;;;;;;;4.65;3.88;;;4.20;99.90;;;;;;5037410;28;20025;-78
2022/01/15 03:59:28;;;;;;;4.88;4.07;;;4.10;99.90;;;;;;5055299;28;20505;-79
2022/01/15 04:01:54;;;;;;;4.50;3.92;;;4.00;99.90;;;;;;5037251;28;20029;-79
2022/01/15 04:04:20;;;;;;;4.35;3.90;;;4.00;99.90;;;;;;5055293;28;20025;-79
2022/01/15 04:06:46;;;;;;;5.70;3.85;;;4.00;99.90;;;;;;5054922;28;20028;-79
2022/01/15 04:09:12;;;;;;;5.40;4.60;;;4.00;99.90;;;;;;5036971;28;20036;-78
2022/01/15 04:11:39;;;;;;;4.30;3.90;;;4.00;99.90;;;;;;5055093;28;20547;-78
2022/01/15 04:14:06;;;;;;;6.03;3.95;;;4.00;99.90;;;;;;5037045;28;20501;-78
2022/01/15 04:16:32;;;;;;;4.85;4.03;;;4.00;99.90;;;;;;5054891;28;20390;-79
2022/01/15 04:18:59;;;;;;;4.65;3.92;;;4.00;99.90;;;;;;5036855;28;20029;-78
2022/01/15 04:21:26;;;;;;;6.30;4.63;;;4.00;99.90;;;;;;5054956;28;20033;-78
2022/01/15 04:23:52;;;;;;;9.48;4.60;;;4.00;99.90;;;;;;5054897;28;20039;-78
2022/01/15 04:26:22;;;;;;;5.28;4.35;;;4.00;99.90;;;;;;5054770;28;20402;-78
2022/01/15 04:28:48;;;;;;;4.47;3.50;;;4.00;99.90;;;;;;5054876;28;20025;-78
2022/01/15 04:31:15;;;;;;;5.15;3.65;;;4.00;99.90;;;;;;5054865;28;20071;-78
2022/01/15 04:33:41;;;;;;;6.00;3.72;;;4.00;99.90;;;;;;5054642;28;20055;-78
2022/01/15 04:36:07;;;;;;;4.35;3.60;;;4.10;99.90;;;;;;5054346;28;20470;-79
2022/01/15 04:38:37;;;;;;;4.70;3.83;;;4.00;99.90;;;;;;5036647;28;20021;-79
2022/01/15 04:41:03;;;;;;;4.43;4.00;;;4.00;99.90;;;;;;5036652;28;20032;-79
2022/01/15 04:43:29;;;;;;;5.03;3.95;;;4.00;99.90;;;;;;5054203;28;20437;-78
2022/01/15 04:45:55;;;;;;;6.28;4.13;;;4.00;99.90;;;;;;5054069;28;20053;-78
2022/01/15 04:48:21;;;;;;;3.92;3.60;;;4.00;99.90;;;;;;5036566;28;20055;-78
2022/01/15 04:50:46;;;;;;;4.10;3.80;;;4.00;99.90;;;;;;5054223;28;20055;-78
2022/01/15 04:53:12;;;;;;;4.95;3.70;;;4.00;99.90;;;;;;5036295;28;20040;-79
2022/01/15 04:55:38;;;;;;;4.72;3.85;;;4.00;99.90;;;;;;5054096;28;20481;-79
2022/01/15 04:58:06;;;;;;;4.95;3.92;;;4.00;99.90;;;;;;5036163;28;20175;-78
2022/01/15 05:00:33;;;;;;;3.97;3.57;;;4.00;99.90;;;;;;5053759;28;20029;-79
2022/01/15 05:02:59;;;;;;;4.13;3.72;;;4.00;99.90;;;;;;5054220;28;20529;-79
2022/01/15 05:05:27;;;;;;;5.03;3.80;;;4.10;99.90;;;;;;5053875;28;20025;-79
2022/01/15 05:07:53;;;;;;;6.38;3.75;;;4.10;99.90;;;;;;5053857;28;20049;-79
2022/01/15 05:10:25;;;;;;;6.93;4.25;;;4.10;99.90;;;;;;5035953;28;20116;-79
2022/01/15 05:12:54;;;;;;;5.45;4.25;;;4.10;99.90;;;;;;5036006;28;20483;-79
2022/01/15 05:15:20;;;;;;;5.30;4.68;;;4.00;99.90;;;;;;5053812;28;20116;-79
2022/01/15 05:17:47;;;;;;;4.75;4.03;;;3.90;99.90;;;;;;5035994;28;20115;-78
2022/01/15 05:20:17;;;;;;;3.42;3.13;;;4.00;99.90;;;;;;5053678;28;20479;-79
2022/01/15 05:22:43;;;;;;;4.10;3.70;;;4.10;99.90;;;;;;5053571;28;20216;-79
2022/01/15 05:25:13;;;;;;;4.63;3.05;;;4.20;99.90;;;;;;5053625;28;20028;-79
2022/01/15 05:27:39;;;;;;;3.00;2.80;;;4.30;99.90;;;;;;5053224;28;20029;-79
2022/01/15 05:30:07;;;;;;;3.95;2.95;;;4.50;99.90;;;;;;5053472;28;20044;-79
2022/01/15 05:32:33;;;;;;;3.38;2.80;;;4.60;99.90;;;;;;5053490;28;20025;-79
2022/01/15 05:35:00;;;;;;;4.07;3.67;;;4.60;99.90;;;;;;5035584;28;20028;-79
2022/01/15 05:37:26;;;;;;;3.22;2.75;;;4.60;99.90;;;;;;5053675;28;20067;-79
2022/01/15 05:39:52;;;;;;;2.88;2.53;;;4.60;99.90;;;;;;5035375;28;20045;-79
2022/01/15 05:42:17;;;;;;;4.07;3.33;;;4.70;99.90;;;;;;5053419;28;20025;-79
2022/01/15 05:44:43;;;;;;;4.63;3.17;;;4.70;99.90;;;;;;5035291;28;20529;-78
2022/01/15 05:47:09;;;;;;;5.35;2.85;;;4.70;99.90;;;;;;5052663;28;20056;-79
2022/01/15 05:49:35;;;;;;;3.22;2.67;;;4.80;99.90;;;;;;5052898;28;20363;-79
2022/01/15 05:52:01;;;;;;;3.88;3.03;;;4.80;99.90;;;;;;5053203;28;20036;-79
2022/01/15 05:54:27;;;;;;;4.97;3.65;;;4.80;99.90;;;;;;5035233;28;20024;-79
2022/01/15 05:56:53;;;;;;;3.60;3.22;;;4.80;99.90;;;;;;5053001;28;20056;-79
2022/01/15 05:59:18;;;;;;;3.88;2.95;;;4.70;99.90;;;;;;5053124;28;20070;-78
2022/01/15 06:01:44;;;;;;;3.95;3.08;;;4.70;99.90;;;;;;5034938;28;20037;-79
2022/01/15 06:04:10;;;;;;;2.35;2.15;;;4.60;99.90;;;;;;5053003;28;20032;-79
2022/01/15 06:06:36;;;;;;;3.33;2.42;;;4.60;99.90;;;;;;5034784;28;20032;-79
2022/01/15 06:09:03;;;;;;;3.30;2.67;;;4.60;99.90;;;;;;5052735;28;20493;-79
2022/01/15 06:11:29;;;;;;;9.68;5.38;;;4.70;99.90;;;;;;5034050;28;20040;-79
2022/01/15 06:13:55;;;;;;;11.18;6.75;;;4.60;99.90;;;;;;5052728;28;20029;-79
2022/01/15 06:16:22;;;;;;;12.30;6.70;;;4.40;99.90;;;;;;5034478;28;20032;-79
2022/01/15 06:18:48;;;;;;;8.32;5.30;;;4.20;99.90;;;;;;5034693;28;20025;-79
2022/01/15 06:21:13;;;;;;;8.65;5.80;;;4.10;99.90;;;;;;5052796;28;20040;-79
2022/01/15 06:23:39;;;;;;;5.88;4.65;;;4.00;99.90;;;;;;5052977;28;20116;-79
2022/01/15 06:26:05;;;;;;;7.05;5.47;;;3.90;99.90;;;;;;5052950;28;20479;-79
2022/01/15 06:28:31;;;;;;;9.00;5.15;;;3.90;99.90;;;;;;5034764;28;20064;-78
2022/01/15 06:30:57;;;;;;;4.73;3.70;;;3.80;99.90;;;;;;5052864;28;20074;-79
2022/01/15 06:33:23;;;;;;;3.65;3.35;;;3.80;99.90;;;;;;5052329;28;20031;-79
2022/01/15 06:35:48;;;;;;;3.70;3.40;;;3.90;99.90;;;;;;5052330;28;20025;-79
2022/01/15 06:38:14;;;;;;;4.70;2.83;;;3.80;99.90;;;;;;5034225;28;20025;-79
2022/01/15 06:40:40;;;;;;;3.17;2.53;;;3.90;99.90;;;;;;5034337;28;20390;-78
2022/01/15 06:43:06;;;;;;;2.88;2.22;;;3.90;99.90;;;;;;5052208;28;20470;-78
2022/01/15 06:45:33;;;;;;;2.10;2.00;;;4.00;99.90;;;;;;5033904;28;20075;-79
2022/01/15 06:47:59;;;;;;;2.95;2.22;;;4.00;99.90;;;;;;5034251;28;20116;-79
2022/01/15 06:50:27;;;;;;;4.75;2.60;;;4.00;99.90;;;;;;5052143;28;20078;-79
2022/01/15 06:52:54;;;;;;;3.70;2.42;;;4.00;99.90;;;;;;5051813;28;20018;-79
2022/01/15 06:55:20;;;;;;;2.97;2.60;;;3.90;99.90;;;;;;5051680;28;20025;-79
2022/01/15 06:57:46;;;;;;;3.20;2.47;;;3.90;99.90;;;;;;5033926;28;20021;-79
2022/01/15 07:00:13;;;;;;;4.18;2.80;;;3.90;99.90;;;;;;5051762;28;20025;-79
2022/01/15 07:02:39;;;;;;;3.05;2.67;;;4.00;99.90;;;;;;5033780;28;20051;-78
2022/01/15 07:05:06;;;;;;;4.22;3.20;;;4.00;99.90;;;;;;5051609;28;20074;-79
2022/01/15 07:07:32;;;;;;;6.40;3.50;;;4.00;99.90;;;;;;5033676;28;20032;-78
2022/01/15 07:09:58;;;;;;;3.93;3.50;;;4.00;99.90;;;;;;5051680;28;20387;-78
2022/01/15 07:12:24;;;;;;;2.97;2.63;;;4.00;99.90;;;;;;5033571;28;20025;-79
2022/01/15 07:14:50;;;;;;;3.00;2.70;;;4.00;99.90;;;;;;5051610;28;20025;-79
2022/01/15 07:17:15;;;;;;;2.53;2.23;;;4.10;99.90;;;;;;5051617;28;20025;-79
2022/01/15 07:19:41;;;;;;;2.25;2.03;;;4.10;99.90;;;;;;5033596;28;20028;-78
2022/01/15 07:22:07;;;;;;;2.70;2.47;;;4.20;99.90;;;;;;5033540;28;20033;-78
2022/01/15 07:24:33;;;;;;;4.63;3.60;;;4.20;99.90;;;;;;5033492;28;20581;-79
2022/01/15 07:26:59;;;;;;;5.47;3.90;;;4.30;99.90;;;;;;5033461;28;20052;-79
2022/01/15 07:29:25;;;;;;;4.97;3.23;;;4.30;99.90;;;;;;5033283;28;20120;-79
2022/01/15 07:31:55;;;;;;;5.77;3.10;;;4.30;99.90;;;;;;5032563;28;20107;-78
2022/01/15 07:34:21;;;;;;;2.45;2.25;;;4.30;99.90;;;;;;5032595;28;20467;-78
2022/01/15 07:36:57;;;;;;;2.20;2.00;;;4.40;99.90;;;;;;5050328;28;20094;-78
2022/01/15 07:39:23;;;;;;;1.98;1.77;;;4.40;99.90;;;;;;5032422;28;20021;-78
2022/01/15 07:41:49;;;;;;;2.28;2.13;;;4.40;99.90;;;;;;5050957;28;20489;-79
2022/01/15 07:44:15;;;;;;;2.15;2.00;;;4.50;99.90;;;;;;5032968;28;20021;-77
2022/01/15 07:46:41;;;;;;;2.20;1.88;;;4.50;99.90;;;;;;5032594;28;20097;-78
2022/01/15 07:49:07;;;;;;;2.30;2.10;;;4.60;99.90;;;;;;5050653;28;20723;-79
2022/01/15 07:51:32;;;;;;;2.42;2.22;;;4.60;99.90;;;;;;5052271;28;20025;-78
2022/01/15 07:53:58;;;;;;;3.15;2.85;;;4.60;99.90;;;;;;5034589;28;20119;-78
2022/01/15 07:56:24;;;;;;;5.60;3.53;;;4.60;99.90;;;;;;5052452;28;20040;-78
2022/01/15 07:58:50;;;;;;;4.72;3.53;;;4.60;99.90;;;;;;5052485;28;20025;-78
2022/01/15 08:01:17;;;;;;;9.18;5.55;;;4.60;99.90;;;;;;5034498;28;20025;-79
2022/01/15 08:03:43;;;;;;;10.73;6.75;;;4.60;99.90;;;;;;5052336;28;20106;-78
2022/01/15 08:06:10;;;;;;;14.15;6.95;;;4.60;99.90;;;;;;5052403;28;20025;-78
2022/01/15 08:08:36;;;;;;;13.07;6.95;;;4.60;99.90;;;;;;5052100;28;20552;-78
2022/01/15 08:11:03;;;;;;;17.38;9.63;;;4.50;99.90;;;;;;5052394;28;20048;-78
2022/01/15 08:13:31;;;;;;;21.10;11.55;;;4.60;99.90;;;;;;5034508;28;20131;-79
2022/01/15 08:15:58;;;;;;;22.00;12.27;;;4.60;99.90;;;;;;5050992;28;20019;-78
2022/01/15 08:18:26;;;;;;;23.98;12.88;;;4.60;99.90;;;;;;5052405;28;20033;-78
2022/01/15 08:20:51;;;;;;;24.63;14.32;;;4.60;99.90;;;;;;5034149;28;20083;-79
2022/01/15 08:23:17;;;;;;;24.77;14.40;;;4.60;99.90;;;;;;5051594;28;20028;-78
2022/01/15 08:25:43;;;;;;;25.25;14.30;;;4.60;99.90;;;;;;5051136;28;20621;-78
2022/01/15 08:28:09;;;;;;;14.20;8.95;;;4.70;99.90;;;;;;5032390;28;20029;-78
2022/01/15 08:30:34;;;;;;;7.93;5.60;;;4.70;99.90;;;;;;5050243;28;20027;-78
2022/01/15 08:33:00;;;;;;;6.65;4.70;;;4.80;99.90;;;;;;5050259;28;20024;-79
2022/01/15 08:35:26;;;;;;;6.43;5.00;;;4.90;99.90;;;;;;5051454;28;20116;-78
2022/01/15 08:37:54;;;;;;;6.68;4.90;;;5.00;99.90;;;;;;5036180;28;20028;-79
2022/01/15 08:40:21;;;;;;;7.70;4.85;;;5.00;99.90;;;;;;5037232;28;20439;-78
2022/01/15 08:42:48;;;;;;;6.93;5.85;;;5.10;99.90;;;;;;5055457;28;20040;-79
2022/01/15 08:45:15;;;;;;;11.73;6.85;;;5.00;99.90;;;;;;5051394;28;20041;-79
2022/01/15 08:47:42;;;;;;;17.02;8.52;;;5.10;99.90;;;;;;5054723;28;20032;-79
2022/01/15 08:50:10;;;;;;;13.27;8.68;;;5.20;99.90;;;;;;5054362;28;20031;-78
2022/01/15 08:52:36;;;;;;;14.40;8.05;;;5.20;99.90;;;;;;5044882;28;20510;-78
2022/01/15 08:55:03;;;;;;;13.57;8.80;;;5.20;99.90;;;;;;5035646;28;20021;-78
2022/01/15 08:57:29;;;;;;;12.23;7.10;;;5.30;99.90;;;;;;5041433;28;20051;-78
2022/01/15 08:59:55;;;;;;;12.18;7.72;;;5.40;99.90;;;;;;5055450;28;20036;-78
2022/01/15 09:02:20;;;;;;;10.57;7.20;;;5.50;99.90;;;;;;5055467;28;20028;-78
2022/01/15 09:04:46;;;;;;;16.65;9.02;;;5.50;99.90;;;;;;5053983;28;20371;-74
2022/01/15 09:07:13;;;;;;;18.48;11.00;;;5.50;99.90;;;;;;5053845;28;20055;-73
2022/01/15 09:09:39;;;;;;;19.27;11.35;;;5.60;99.90;;;;;;5053909;28;20021;-73
2022/01/15 09:12:05;;;;;;;21.50;11.88;;;5.60;99.90;;;;;;5053738;28;20176;-74
2022/01/15 09:14:30;;;;;;;18.02;11.23;;;5.60;99.90;;;;;;5053537;28;20104;-73
2022/01/15 09:16:56;;;;;;;18.90;12.07;;;5.60;99.90;;;;;;5052366;28;20021;-73
2022/01/15 09:19:22;;;;;;;21.42;11.65;;;5.70;99.90;;;;;;5051608;28;20490;-73
2022/01/15 09:21:47;;;;;;;18.90;11.07;;;5.70;99.90;;;;;;5033692;28;20032;-73
2022/01/15 09:24:13;;;;;;;19.02;11.23;;;5.70;99.90;;;;;;5051798;28;20485;-74
2022/01/15 09:27:00;;;;;;;23.60;12.45;;;5.70;99.90;;;;;;5051649;28;20029;-73
2022/01/15 09:32:11;;;;;;;22.05;12.07;;;6.00;99.90;;;;;;5052862;28;20044;-73
2022/01/15 09:34:37;;;;;;;21.20;12.68;;;6.10;99.90;;;;;;5053460;28;20035;-73
2022/01/15 09:37:05;;;;;;;21.70;12.45;;;6.20;99.90;;;;;;5053483;28;20094;-73
2022/01/15 09:39:31;;;;;;;23.38;12.25;;;6.20;99.90;;;;;;5053253;28;20033;-73
2022/01/15 09:41:57;;;;;;;20.75;11.98;;;6.20;99.90;;;;;;5053168;28;20036;-73
2022/01/15 09:44:24;;;;;;;20.48;11.90;;;6.40;99.90;;;;;;5035198;28;20025;-73
2022/01/15 09:46:51;;;;;;;25.27;12.02;;;6.40;99.90;;;;;;5052059;28;20049;-74
2022/01/15 09:49:19;;;;;;;23.65;12.38;;;6.40;99.90;;;;;;5053156;28;20032;-73
2022/01/15 09:51:46;;;;;;;20.67;12.43;;;6.40;99.90;;;;;;5048958;28;20021;-73
2022/01/15 09:54:14;;;;;;;27.85;12.88;;;6.50;99.90;;;;;;5033202;28;20127;-73
2022/01/15 09:56:40;;;;;;;22.33;12.55;;;6.50;99.90;;;;;;5015220;28;20053;-73
2022/01/15 09:59:06;;;;;;;22.00;11.73;;;6.60;99.90;;;;;;5032889;28;20446;-73
2022/01/15 10:01:32;;;;;;;23.60;13.15;;;6.80;99.90;;;;;;5015255;28;20028;-73
2022/01/15 10:03:59;;;;;;;21.30;12.43;;;6.90;99.90;;;;;;5032780;28;20033;-73
2022/01/15 10:06:25;;;;;;;24.20;13.15;;;7.00;99.90;;;;;;5032749;28;20029;-73
2022/01/15 10:09:04;;;;;;;24.40;13.00;;;7.10;99.90;;;;;;5032705;28;20029;-73
2022/01/15 10:11:48;;;;;;;29.70;13.57;;;7.20;99.90;;;;;;5032593;28;20017;-73
2022/01/15 10:14:25;;;;;;;25.95;12.93;;;7.30;99.90;;;;;;5032638;28;20025;-73
2022/01/15 10:16:51;;;;;;;30.20;15.18;;;7.40;99.90;;;;;;5032718;28;20491;-73
2022/01/15 10:19:34;;;;;;;27.63;15.43;;;7.40;99.90;;;;;;5014745;28;20030;-73
2022/01/15 10:22:14;;;;;;;27.55;16.02;;;7.40;99.90;;;;;;5032308;28;20067;-73
2022/01/15 10:24:48;;;;;;;28.40;13.98;;;7.40;99.90;;;;;;5032547;28;20483;-73
2022/01/15 10:27:20;;;;;;;25.23;13.82;;;7.50;99.90;;;;;;5032536;28;20032;-73
2022/01/15 10:29:57;;;;;;;23.48;14.63;;;7.60;99.90;;;;;;5032457;28;20064;-73
2022/01/15 10:32:27;;;;;;;29.23;13.88;;;7.50;99.90;;;;;;5014541;28;20236;-73
2022/01/15 10:34:54;;;;;;;23.02;13.05;;;7.70;99.90;;;;;;5014427;28;20053;-73
2022/01/15 10:37:37;;;;;;;25.42;13.68;;;7.90;99.90;;;;;;5032169;28;20032;-73
2022/01/15 10:40:05;;;;;;;24.75;13.40;;;7.90;99.90;;;;;;5014524;28;20052;-73
2022/01/15 10:42:32;;;;;;;21.17;13.98;;;7.90;99.90;;;;;;5032197;28;20026;-74
2022/01/15 10:45:00;;;;;;;25.52;13.95;;;8.00;99.90;;;;;;5014067;28;20040;-74
2022/01/15 10:47:28;;;;;;;27.98;16.08;;;7.90;99.90;;;;;;5032078;28;20041;-73
2022/01/15 10:50:01;;;;;;;33.70;16.58;;;8.00;99.90;;;;;;5031979;28;20501;-73
2022/01/15 10:52:28;;;;;;;30.85;15.70;;;8.10;99.90;;;;;;5031985;28;20219;-73
2022/01/15 10:55:01;;;;;;;30.15;15.07;;;8.10;99.90;;;;;;5032017;28;20029;-73
2022/01/15 10:57:49;;;;;;;27.10;15.85;;;8.10;99.90;;;;;;5031769;28;20018;-73
2022/01/15 11:00:30;;;;;;;30.70;16.42;;;8.10;99.90;;;;;;5017866;28;20506;-73
2022/01/15 11:03:01;;;;;;;27.30;16.58;;;8.40;99.90;;;;;;5031961;28;20022;-73
2022/01/15 11:05:33;;;;;;;31.08;16.55;;;8.50;99.90;;;;;;5037354;28;20020;-73
2022/01/15 11:08:22;;;;;;;33.08;17.30;;;8.50;99.90;;;;;;5030098;28;20029;-74
2022/01/15 11:10:56;;;;;;;29.00;16.08;;;8.60;99.90;;;;;;5051702;28;20079;-73
2022/01/15 11:13:45;;;;;;;29.67;16.40;;;8.70;99.90;;;;;;5051789;28;20067;-73
2022/01/15 11:16:16;;;;;;;31.33;17.75;;;8.70;99.90;;;;;;5051832;28;20021;-73
2022/01/15 11:18:44;;;;;;;29.45;16.75;;;8.80;99.90;;;;;;5051733;28;20033;-73
2022/01/15 11:21:19;;;;;;;33.33;18.48;;;8.80;99.90;;;;;;5051937;28;20036;-73
2022/01/15 11:23:46;;;;;;;36.38;18.35;;;8.80;99.90;;;;;;5031798;28;20032;-73
2022/01/15 11:26:19;;;;;;;29.98;17.08;;;8.70;99.90;;;;;;5049194;28;20158;-73
2022/01/15 11:28:45;;;;;;;30.05;17.63;;;8.70;99.90;;;;;;5052746;28;20028;-74
2022/01/15 11:31:15;;;;;;;36.78;17.67;;;8.70;99.90;;;;;;5056017;28;20043;-74
2022/01/15 11:33:50;;;;;;;33.47;18.02;;;8.70;99.90;;;;;;5035902;28;21354;-73
2022/01/15 11:36:30;;;;;;;37.05;19.00;;;8.60;99.90;;;;;;5051359;28;20040;-74
2022/01/15 11:38:57;;;;;;;42.17;21.95;;;8.80;99.90;;;;;;5033414;28;20082;-73
2022/01/15 11:41:22;;;;;;;45.13;22.65;;;8.90;99.90;;;;;;5051388;28;20025;-73
2022/01/15 11:43:50;;;;;;;40.42;21.92;;;9.00;99.90;;;;;;5033937;28;20540;-73
2022/01/15 11:46:25;;;;;;;41.28;23.02;;;8.90;99.90;;;;;;5049734;28;20095;-73
2022/01/15 11:48:51;;;;;;;39.00;22.13;;;9.00;99.90;;;;;;5022571;28;20071;-73
2022/01/15 11:51:18;;;;;;;40.78;21.88;;;9.00;99.90;;;;;;5037714;28;20025;-73
2022/01/15 11:53:51;;;;;;;37.90;22.20;;;9.00;99.90;;;;;;5049796;28;20017;-73
2022/01/15 11:56:21;;;;;;;47.60;23.23;;;9.10;99.90;;;;;;5042950;28;20035;-73
2022/01/15 11:58:47;;;;;;;48.78;22.67;;;9.10;99.90;;;;;;5050654;28;20116;-74
2022/01/15 12:01:35;;;;;;;43.15;22.65;;;9.10;99.90;;;;;;5033573;28;20119;-73
2022/01/15 12:04:25;;;;;;;43.50;23.50;;;9.20;99.90;;;;;;5051701;28;20051;-74
2022/01/15 12:07:04;;;;;;;45.67;24.27;;;9.20;99.90;;;;;;5050817;28;20025;-73
2022/01/15 12:09:33;;;;;;;43.05;23.90;;;9.30;99.90;;;;;;5050627;28;20111;-74
2022/01/15 12:12:00;;;;;;;47.05;23.65;;;9.30;99.90;;;;;;5054592;28;20053;-73
2022/01/15 12:14:47;;;;;;;44.47;23.80;;;9.40;99.90;;;;;;5052194;28;20036;-74
2022/01/15 12:17:22;;;;;;;41.88;22.65;;;9.40;99.90;;;;;;5031615;28;20025;-74
2022/01/15 12:19:48;;;;;;;52.63;25.60;;;9.40;99.90;;;;;;5036541;28;20071;-73
2022/01/15 12:22:33;;;;;;;42.58;22.70;;;9.30;99.90;;;;;;5045849;28;20033;-74
2022/01/15 12:24:58;;;;;;;43.97;24.55;;;9.40;99.90;;;;;;5040305;28;20029;-74
2022/01/15 12:27:29;;;;;;;52.08;23.98;;;9.40;99.90;;;;;;5055043;28;20028;-74
2022/01/15 12:30:18;;;;;;;46.25;24.63;;;9.50;99.90;;;;;;5055232;28;20033;-74
2022/01/15 12:32:49;;;;;;;39.78;23.10;;;9.60;99.90;;;;;;5054030;28;20486;-73
2022/01/15 12:35:22;;;;;;;47.90;24.88;;;9.60;99.90;;;;;;5054031;28;20066;-74
2022/01/15 12:37:56;;;;;;;44.45;23.10;;;9.60;99.90;;;;;;5035443;28;20490;-73
2022/01/15 12:40:42;;;;;;;42.17;22.98;;;9.60;99.90;;;;;;5054535;28;20489;-73
2022/01/15 12:43:22;;;;;;;44.10;22.92;;;9.60;99.90;;;;;;5056472;28;20077;-74
2022/01/15 12:45:54;;;;;;;41.92;22.15;;;9.60;99.90;;;;;;5063240;28;20056;-73
2022/01/15 12:48:26;;;;;;;45.80;24.13;;;9.70;99.90;;;;;;5036260;28;20075;-74
2022/01/15 12:50:53;;;;;;;;;;;9.80;99.90;;;;;;5052315;28;20013;-74
2022/01/15 12:53:21;;;;;;;38.97;21.50;;;9.80;99.90;;;;;;5035658;28;19952;-73
2022/01/15 12:55:48;;;;;;;35.85;20.73;;;9.80;99.90;;;;;;5053889;28;20017;-73
2022/01/15 12:58:20;;;;;;;39.78;21.02;;;9.80;99.90;;;;;;5035918;28;20113;-74
2022/01/15 13:00:46;;;;;;;39.38;21.17;;;9.80;99.90;;;;;;5053956;28;20379;-73
2022/01/15 13:03:14;;;;;;;38.15;20.42;;;9.80;99.90;;;;;;5055372;28;20108;-73
2022/01/15 13:05:50;;;;;;;37.78;21.60;;;9.90;99.90;;;;;;5034820;28;20517;-73
2022/01/15 13:08:24;;;;;;;39.20;20.25;;;9.80;99.90;;;;;;5053424;28;20028;-74
2022/01/15 13:10:54;;;;;;;47.05;22.58;;;9.90;99.90;;;;;;5036141;28;20398;-73
2022/01/15 13:13:21;;;;;;;42.90;21.30;;;10.00;99.90;;;;;;5054184;28;20068;-74
2022/01/15 13:15:58;;;;;;;36.08;20.10;;;10.00;99.90;;;;;;5052681;28;20023;-74